Time;durP1;ratioP1;P1;durP2;ratioP2;P2;SDS_P1;SDS_P2;PMS_P1;PMS_P2;Temp;Humidity;BMP_temperature;BMP_pressure;BME280_temperature;BME280_humidity;BME280_pressure;Samples;Min_cycle;Max_cycle;Signal;HPM_P1;HPM_P2
2023/05/10 00:00:53;;;;;;;11.80;8.55;;;11.90;99.90;;;;;;5027607;28;20563;-76
2023/05/10 00:03:19;;;;;;;11.50;10.18;;;11.90;99.90;;;;;;5020547;28;20061;-80
2023/05/10 00:05:45;;;;;;;11.45;10.13;;;11.90;99.90;;;;;;5010594;28;20052;-73
2023/05/10 00:08:14;;;;;;;12.07;10.70;;;11.90;99.90;;;;;;5017397;28;20053;-78
2023/05/10 00:10:40;;;;;;;12.98;10.50;;;11.90;99.90;;;;;;5008270;28;20053;-76
2023/05/10 00:13:06;;;;;;;15.63;12.38;;;11.90;99.90;;;;;;5022367;28;20045;-78
2023/05/10 00:15:32;;;;;;;11.13;8.18;;;11.90;99.90;;;;;;5008402;28;20054;-75
2023/05/10 00:17:58;;;;;;;8.35;7.25;;;12.00;99.90;;;;;;5025497;28;20080;-76
2023/05/10 00:20:25;;;;;;;12.65;11.07;;;12.00;99.90;;;;;;5007496;28;21081;-79
2023/05/10 00:22:51;;;;;;;13.25;10.48;;;11.90;99.90;;;;;;5027977;28;20075;-77
2023/05/10 00:25:16;;;;;;;12.63;10.30;;;12.00;99.90;;;;;;5021575;28;20053;-78
2023/05/10 00:27:42;;;;;;;15.85;13.48;;;11.90;99.90;;;;;;5025429;28;20073;-76
2023/05/10 00:30:08;;;;;;;21.80;12.10;;;11.90;99.90;;;;;;5002458;28;20049;-75
2023/05/10 00:32:34;;;;;;;26.77;11.52;;;11.90;99.90;;;;;;5027714;28;20075;-80
2023/05/10 00:34:59;;;;;;;23.65;13.15;;;12.00;99.90;;;;;;5016774;28;20071;-76
2023/05/10 00:37:25;;;;;;;29.30;10.77;;;11.90;99.90;;;;;;5009416;28;20042;-76
2023/05/10 00:39:51;;;;;;;31.77;12.55;;;11.90;99.90;;;;;;5023769;28;20041;-74
2023/05/10 00:42:17;;;;;;;25.60;10.38;;;11.90;99.90;;;;;;5017805;28;21033;-77
2023/05/10 00:44:42;;;;;;;24.25;11.75;;;11.90;99.90;;;;;;5009455;28;20083;-79
2023/05/10 00:47:09;;;;;;;15.52;10.27;;;11.90;99.90;;;;;;5013791;28;20119;-76
2023/05/10 00:49:35;;;;;;;21.35;9.98;;;11.90;99.90;;;;;;5023507;28;20420;-75
2023/05/10 00:52:01;;;;;;;20.20;11.63;;;11.90;99.90;;;;;;5009887;28;20037;-74
2023/05/10 00:54:33;;;;;;;16.52;10.68;;;11.90;99.90;;;;;;5020745;28;20134;-77
2023/05/10 00:56:59;;;;;;;15.25;12.43;;;11.90;99.90;;;;;;5010134;28;20055;-75
2023/05/10 00:59:25;;;;;;;20.98;11.48;;;11.90;99.90;;;;;;5021264;28;20056;-79
2023/05/10 01:01:53;;;;;;;19.08;11.38;;;11.90;99.90;;;;;;5003207;28;20053;-75
2023/05/10 01:04:25;;;;;;;20.27;12.27;;;11.90;99.90;;;;;;5022117;28;20171;-79
2023/05/10 01:06:51;;;;;;;17.60;11.23;;;11.90;99.90;;;;;;5016619;28;20056;-75
2023/05/10 01:09:17;;;;;;;18.08;11.68;;;11.90;99.90;;;;;;5028065;28;20041;-75
2023/05/10 01:11:44;;;;;;;16.55;9.90;;;11.90;99.90;;;;;;5023981;28;20111;-75
2023/05/10 01:14:10;;;;;;;13.45;9.15;;;11.90;99.90;;;;;;5019681;28;20052;-76
2023/05/10 01:16:38;;;;;;;12.25;8.80;;;11.90;99.90;;;;;;5025289;28;20045;-77
2023/05/10 01:19:23;;;;;;;16.65;9.77;;;11.90;99.90;;;;;;5013748;28;20049;-76
2023/05/10 01:22:14;;;;;;;11.48;8.07;;;11.90;99.90;;;;;;5027289;28;20064;-77
2023/05/10 01:25:00;;;;;;;16.98;9.27;;;11.90;99.90;;;;;;5022957;28;20053;-74
2023/05/10 01:27:53;;;;;;;13.98;9.25;;;11.90;99.90;;;;;;5025613;28;20148;-76
2023/05/10 01:31:03;;;;;;;14.80;6.43;;;11.90;99.90;;;;;;5025363;28;20858;-78
2023/05/10 01:33:47;;;;;;;13.57;8.15;;;11.80;99.90;;;;;;4964548;28;20057;-75
2023/05/10 01:36:26;;;;;;;11.88;7.35;;;11.80;99.90;;;;;;5025970;28;20473;-73
2023/05/10 01:39:01;;;;;;;10.55;7.15;;;12.50;99.90;;;;;;5028316;28;20038;-75
2023/05/10 01:41:59;;;;;;;14.15;8.60;;;11.80;99.90;;;;;;5029728;28;20092;-76
2023/05/10 01:44:55;;;;;;;18.02;8.07;;;11.80;99.90;;;;;;5028130;28;20156;-74
2023/05/10 01:47:45;;;;;;;8.88;6.85;;;11.80;99.90;;;;;;5025396;28;20057;-74
2023/05/10 01:50:18;;;;;;;9.38;7.13;;;11.80;99.90;;;;;;5007127;28;20099;-74
2023/05/10 01:52:50;;;;;;;8.52;7.28;;;11.80;99.90;;;;;;5026204;28;20057;-74
2023/05/10 01:55:20;;;;;;;6.93;5.43;;;11.80;99.90;;;;;;5023488;28;20765;-74
2023/05/10 01:57:48;;;;;;;6.38;5.10;;;11.60;99.90;;;;;;5022550;28;20516;-74
2023/05/10 02:00:15;;;;;;;6.20;4.85;;;11.80;99.90;;;;;;5009141;28;20758;-74
2023/05/10 02:02:45;;;;;;;5.97;4.18;;;11.80;99.90;;;;;;5023151;28;20102;-71
2023/05/10 02:05:13;;;;;;;6.25;4.82;;;11.80;99.90;;;;;;4997938;28;20495;-75
2023/05/10 02:07:39;;;;;;;5.53;4.22;;;11.80;99.90;;;;;;5024529;28;20394;-75
2023/05/10 02:10:07;;;;;;;7.00;5.18;;;11.80;99.90;;;;;;5011351;28;20084;-75
2023/05/10 02:12:41;;;;;;;5.88;4.45;;;11.80;99.90;;;;;;5008948;28;20045;-76
2023/05/10 02:15:08;;;;;;;6.13;4.82;;;11.80;99.90;;;;;;5039308;28;20057;-75
2023/05/10 02:17:36;;;;;;;8.35;5.53;;;11.80;99.90;;;;;;5022093;28;20549;-76
2023/05/10 02:20:04;;;;;;;5.85;4.57;;;11.80;99.90;;;;;;5013437;28;20045;-75
2023/05/10 02:22:31;;;;;;;7.82;4.82;;;11.80;99.90;;;;;;5038884;28;20053;-75
2023/05/10 02:24:59;;;;;;;5.82;4.40;;;11.80;99.90;;;;;;5025637;28;20056;-76
2023/05/10 02:27:27;;;;;;;5.57;4.47;;;11.80;99.90;;;;;;5015910;28;20281;-77
2023/05/10 02:29:54;;;;;;;7.22;5.63;;;11.80;99.90;;;;;;5022640;28;20083;-74
2023/05/10 02:32:22;;;;;;;6.55;4.90;;;11.80;99.90;;;;;;5021253;28;20132;-74
2023/05/10 02:34:51;;;;;;;6.07;4.82;;;11.80;99.90;;;;;;5022245;28;20073;-74
2023/05/10 02:37:20;;;;;;;4.03;3.25;;;11.80;99.90;;;;;;5021318;28;20106;-76
2023/05/10 02:39:55;;;;;;;4.55;3.42;;;11.80;99.90;;;;;;5023250;28;20049;-73
2023/05/10 02:42:26;;;;;;;8.00;3.63;;;11.70;99.90;;;;;;5016798;28;20124;-75
2023/05/10 02:44:55;;;;;;;6.13;4.10;;;11.70;99.90;;;;;;5037428;28;20045;-76
2023/05/10 02:47:21;;;;;;;6.00;4.35;;;11.70;99.90;;;;;;5019480;28;20587;-76
2023/05/10 02:49:47;;;;;;;5.82;4.20;;;11.70;99.90;;;;;;5025129;28;20064;-76
2023/05/10 02:52:17;;;;;;;7.38;4.20;;;11.70;99.90;;;;;;5019053;28;20044;-76
2023/05/10 02:54:52;;;;;;;4.47;3.60;;;11.70;99.90;;;;;;5022237;28;20450;-75
2023/05/10 02:57:26;;;;;;;5.20;3.80;;;11.70;99.90;;;;;;5005437;28;20161;-74
2023/05/10 02:59:51;;;;;;;4.20;2.97;;;11.80;99.90;;;;;;5023039;28;20842;-74
2023/05/10 03:02:17;;;;;;;3.08;2.30;;;11.80;99.90;;;;;;5004660;28;20045;-76
2023/05/10 03:04:43;;;;;;;3.08;2.55;;;11.80;99.90;;;;;;5020668;28;20172;-74
2023/05/10 03:07:09;;;;;;;5.22;2.55;;;11.80;99.90;;;;;;5023097;28;20046;-74
2023/05/10 03:09:35;;;;;;;3.92;2.50;;;11.80;99.90;;;;;;5021155;28;20045;-75
2023/05/10 03:12:15;;;;;;;3.58;2.83;;;11.80;99.90;;;;;;5023345;28;20037;-73
2023/05/10 03:14:50;;;;;;;4.10;3.22;;;11.80;99.90;;;;;;5034004;28;20064;-79
2023/05/10 03:17:23;;;;;;;4.07;3.55;;;11.80;99.90;;;;;;5019589;28;20111;-75
2023/05/10 03:19:57;;;;;;;5.47;3.53;;;11.80;99.90;;;;;;5026261;28;20069;-78
2023/05/10 03:23:09;;;;;;;5.53;3.47;;;11.80;99.90;;;;;;5023983;28;20657;-75
2023/05/10 03:25:35;;;;;;;4.82;3.70;;;11.80;99.90;;;;;;4984128;28;20053;-75
2023/05/10 03:28:03;;;;;;;6.43;3.40;;;11.80;99.90;;;;;;5023883;28;20049;-75
2023/05/10 03:30:30;;;;;;;4.90;3.20;;;11.90;99.90;;;;;;5015459;28;20049;-75
2023/05/10 03:32:56;;;;;;;4.57;3.80;;;11.90;99.90;;;;;;5006454;28;20214;-78
2023/05/10 03:35:23;;;;;;;5.10;3.47;;;11.90;99.90;;;;;;5029531;28;21140;-75
2023/05/10 03:37:49;;;;;;;4.88;4.03;;;11.90;99.90;;;;;;5025978;28;20402;-77
2023/05/10 03:40:15;;;;;;;5.78;3.90;;;11.90;99.90;;;;;;5024951;28;20057;-74
2023/05/10 03:42:41;;;;;;;6.35;4.20;;;11.90;99.90;;;;;;5024486;28;20045;-77
2023/05/10 03:45:07;;;;;;;6.07;4.55;;;11.90;99.90;;;;;;5011681;28;20052;-75
2023/05/10 03:47:33;;;;;;;4.75;4.25;;;11.90;99.90;;;;;;5024068;28;20109;-75
2023/05/10 03:49:59;;;;;;;4.07;3.67;;;11.90;99.90;;;;;;5012591;28;20053;-75
2023/05/10 03:52:25;;;;;;;7.30;4.07;;;11.90;99.90;;;;;;5027379;28;21171;-74
2023/05/10 03:54:50;;;;;;;5.60;4.50;;;11.90;99.90;;;;;;5012000;28;20107;-76
2023/05/10 03:57:16;;;;;;;7.53;4.85;;;11.90;99.90;;;;;;5027053;28;20496;-77
2023/05/10 03:59:43;;;;;;;5.95;5.22;;;11.90;99.90;;;;;;5001566;28;20047;-75
2023/05/10 04:02:09;;;;;;;5.45;3.95;;;11.90;99.90;;;;;;5011137;28;20567;-75
2023/05/10 04:04:34;;;;;;;6.13;4.65;;;11.90;99.90;;;;;;5024808;28;20041;-76
2023/05/10 04:07:00;;;;;;;7.03;5.40;;;11.90;99.90;;;;;;5010651;28;20056;-78
2023/05/10 04:09:32;;;;;;;5.80;4.47;;;11.90;99.90;;;;;;5023065;28;20072;-75
2023/05/10 04:12:00;;;;;;;6.35;5.18;;;11.90;99.90;;;;;;5021818;28;20052;-76
2023/05/10 04:14:25;;;;;;;7.65;6.15;;;11.90;99.90;;;;;;5025162;28;20056;-77
2023/05/10 04:16:51;;;;;;;8.45;6.13;;;11.90;99.90;;;;;;5003744;28;20045;-76
2023/05/10 04:19:17;;;;;;;9.13;5.72;;;11.90;99.90;;;;;;5025460;28;20041;-75
2023/05/10 04:21:43;;;;;;;7.45;5.65;;;11.90;99.90;;;;;;5023885;28;20091;-74
2023/05/10 04:24:08;;;;;;;6.53;5.13;;;11.90;99.90;;;;;;4992922;28;20330;-75
2023/05/10 04:26:34;;;;;;;7.03;5.20;;;11.90;99.90;;;;;;5019179;28;20073;-78
2023/05/10 04:29:00;;;;;;;6.35;5.00;;;12.70;99.90;;;;;;5006551;28;20053;-75
2023/05/10 04:31:27;;;;;;;6.18;4.60;;;11.90;99.90;;;;;;5044996;28;20053;-75
2023/05/10 04:33:53;;;;;;;5.22;4.55;;;11.90;99.90;;;;;;5020361;28;20053;-75
2023/05/10 04:36:19;;;;;;;7.30;4.82;;;11.90;99.90;;;;;;5011427;28;20045;-78
2023/05/10 04:38:44;;;;;;;6.20;4.63;;;11.90;99.90;;;;;;5023742;28;20067;-78
2023/05/10 04:41:12;;;;;;;6.45;4.97;;;11.90;99.90;;;;;;5041409;28;20515;-76
2023/05/10 04:43:38;;;;;;;9.23;5.00;;;11.90;99.90;;;;;;5011282;28;20091;-75
2023/05/10 04:46:05;;;;;;;7.57;5.00;;;11.90;99.90;;;;;;5023548;28;20055;-75
2023/05/10 04:48:31;;;;;;;6.53;5.30;;;11.90;99.90;;;;;;5022093;28;20251;-78
2023/05/10 04:50:57;;;;;;;7.50;5.30;;;11.90;99.90;;;;;;5021668;28;20472;-76
2023/05/10 04:53:22;;;;;;;8.80;6.00;;;11.90;99.90;;;;;;5025182;28;20059;-76
2023/05/10 04:55:48;;;;;;;8.65;5.45;;;11.80;99.90;;;;;;5021718;28;20064;-75
2023/05/10 04:58:15;;;;;;;5.20;4.03;;;12.40;99.90;;;;;;5009820;28;20049;-75
2023/05/10 05:00:41;;;;;;;6.38;4.20;;;11.80;99.90;;;;;;5019402;28;20049;-77
2023/05/10 05:03:09;;;;;;;8.23;5.30;;;12.50;99.90;;;;;;5010776;28;20080;-79
2023/05/10 05:05:35;;;;;;;9.00;5.43;;;11.80;99.90;;;;;;5003947;28;20041;-79
2023/05/10 05:08:00;;;;;;;6.63;4.97;;;11.90;99.90;;;;;;5020734;28;20107;-77
2023/05/10 05:10:26;;;;;;;8.55;4.95;;;11.80;99.90;;;;;;5024059;28;20049;-78
2023/05/10 05:12:52;;;;;;;7.50;4.72;;;11.90;99.90;;;;;;5003829;28;20048;-77
2023/05/10 05:15:18;;;;;;;9.73;4.10;;;11.90;99.90;;;;;;4999563;28;20210;-79
2023/05/10 05:17:44;;;;;;;6.63;3.90;;;11.90;99.90;;;;;;5010579;28;20051;-75
2023/05/10 05:20:10;;;;;;;7.80;3.80;;;11.90;99.90;;;;;;5024028;28;20049;-75
2023/05/10 05:22:37;;;;;;;7.18;4.20;;;11.90;99.90;;;;;;5017170;28;20128;-78
2023/05/10 05:25:04;;;;;;;6.53;4.03;;;11.90;99.90;;;;;;5021611;28;20052;-75
2023/05/10 05:27:33;;;;;;;7.63;3.90;;;11.90;99.90;;;;;;5021342;28;20049;-76
2023/05/10 05:29:59;;;;;;;7.28;3.50;;;11.90;99.90;;;;;;5020951;28;20578;-76
2023/05/10 05:32:27;;;;;;;5.82;3.38;;;11.90;99.90;;;;;;5002152;28;20056;-78
2023/05/10 05:34:53;;;;;;;5.72;3.35;;;11.90;99.90;;;;;;4992829;28;20037;-76
2023/05/10 05:37:21;;;;;;;4.47;2.53;;;11.90;99.90;;;;;;5020750;28;20057;-79
2023/05/10 05:39:47;;;;;;;7.72;2.78;;;11.80;99.90;;;;;;5019664;28;20053;-77
2023/05/10 05:42:13;;;;;;;4.38;2.75;;;11.80;99.90;;;;;;5021398;28;20056;-76
2023/05/10 05:44:39;;;;;;;3.70;2.28;;;11.80;99.90;;;;;;5023298;28;20052;-77
2023/05/10 05:47:06;;;;;;;4.75;2.30;;;11.70;99.90;;;;;;5003816;28;20049;-78
2023/05/10 05:49:32;;;;;;;4.03;2.03;;;11.80;99.90;;;;;;5026647;28;20045;-75
2023/05/10 05:52:02;;;;;;;4.13;2.40;;;11.80;99.90;;;;;;5021662;28;20088;-76
2023/05/10 05:54:29;;;;;;;4.25;2.25;;;11.80;99.90;;;;;;5025223;28;20045;-75
2023/05/10 05:56:56;;;;;;;3.88;2.20;;;11.80;99.90;;;;;;5005890;28;20044;-74
2023/05/10 05:59:22;;;;;;;2.70;1.73;;;11.80;99.90;;;;;;5020984;28;20067;-76
2023/05/10 06:01:48;;;;;;;3.47;1.95;;;11.80;99.90;;;;;;5016866;28;20484;-77
2023/05/10 06:04:13;;;;;;;3.95;2.10;;;11.80;99.90;;;;;;5020820;28;20123;-78
2023/05/10 06:06:39;;;;;;;3.63;2.33;;;11.90;99.90;;;;;;5006000;28;20041;-77
2023/05/10 06:09:05;;;;;;;4.70;2.60;;;11.90;99.90;;;;;;5023083;28;20480;-75
2023/05/10 06:11:32;;;;;;;3.47;2.08;;;11.90;99.90;;;;;;5024790;28;20092;-75
2023/05/10 06:13:58;;;;;;;3.67;2.38;;;11.90;99.90;;;;;;5017591;28;20395;-77
2023/05/10 06:16:24;;;;;;;5.57;3.28;;;11.90;99.90;;;;;;5007840;28;20490;-78
2023/05/10 06:18:49;;;;;;;6.13;3.42;;;11.90;99.90;;;;;;4991498;28;20102;-77
2023/05/10 06:21:16;;;;;;;6.38;3.58;;;11.90;99.90;;;;;;5007793;28;20150;-75
2023/05/10 06:23:42;;;;;;;5.97;3.20;;;11.90;99.90;;;;;;5016611;28;20052;-78
2023/05/10 06:26:07;;;;;;;5.50;3.53;;;11.90;99.90;;;;;;5032409;28;20041;-76
2023/05/10 06:28:33;;;;;;;5.10;3.63;;;12.00;99.90;;;;;;5019751;28;20468;-76
2023/05/10 06:31:01;;;;;;;5.68;3.35;;;12.00;99.90;;;;;;5022579;28;20055;-75
2023/05/10 06:33:27;;;;;;;4.68;3.17;;;12.00;99.90;;;;;;5026038;28;20100;-74
2023/05/10 06:35:53;;;;;;;3.85;2.63;;;12.00;99.90;;;;;;5018382;28;20049;-74
2023/05/10 06:38:19;;;;;;;3.78;2.38;;;12.00;99.90;;;;;;5017420;28;20114;-77
2023/05/10 06:40:44;;;;;;;4.53;2.17;;;12.10;99.90;;;;;;5003150;28;20060;-76
2023/05/10 06:43:10;;;;;;;3.60;2.20;;;12.10;99.90;;;;;;5021080;28;20087;-74
2023/05/10 06:45:36;;;;;;;4.57;2.67;;;12.10;99.90;;;;;;5022206;28;20949;-78
2023/05/10 06:48:02;;;;;;;4.38;2.83;;;12.10;99.90;;;;;;5017873;28;20037;-75
2023/05/10 06:50:28;;;;;;;4.68;2.70;;;12.20;99.90;;;;;;5031461;28;20103;-75
2023/05/10 06:52:55;;;;;;;4.97;2.38;;;12.20;99.90;;;;;;5037034;28;20053;-74
2023/05/10 06:55:21;;;;;;;3.63;2.80;;;12.20;99.90;;;;;;5032616;28;20049;-75
2023/05/10 06:57:47;;;;;;;3.83;2.50;;;12.10;99.90;;;;;;5021466;28;20163;-74
2023/05/10 07:00:14;;;;;;;3.85;2.45;;;12.20;99.90;;;;;;5021957;28;20051;-75
2023/05/10 07:02:39;;;;;;;3.58;2.05;;;12.20;99.90;;;;;;5033017;28;20044;-76
2023/05/10 07:05:06;;;;;;;4.68;2.15;;;12.20;99.90;;;;;;5031093;28;20510;-76
2023/05/10 07:07:31;;;;;;;3.72;2.20;;;12.20;99.90;;;;;;5037432;28;20088;-75
2023/05/10 07:09:57;;;;;;;2.80;1.83;;;12.30;99.90;;;;;;5039953;28;20504;-75
2023/05/10 07:12:24;;;;;;;2.63;1.90;;;12.30;99.90;;;;;;5021876;28;20045;-76
2023/05/10 07:14:50;;;;;;;3.13;2.00;;;12.30;99.90;;;;;;5021183;28;20060;-75
2023/05/10 07:17:15;;;;;;;2.67;2.00;;;12.30;99.90;;;;;;5029899;28;20515;-77
2023/05/10 07:19:41;;;;;;;4.90;2.47;;;12.40;99.90;;;;;;5021102;28;20563;-75
2023/05/10 07:22:07;;;;;;;3.70;2.30;;;12.40;99.90;;;;;;5034385;28;20038;-75
2023/05/10 07:24:33;;;;;;;3.08;2.30;;;12.40;99.90;;;;;;5031368;28;20049;-77
2023/05/10 07:26:59;;;;;;;3.00;2.50;;;12.50;99.90;;;;;;5017155;28;20049;-74
2023/05/10 07:29:25;;;;;;;6.10;2.80;;;12.50;99.90;;;;;;5033854;28;20538;-76
2023/05/10 07:31:51;;;;;;;4.10;2.70;;;12.60;99.90;;;;;;5031828;28;20361;-75
2023/05/10 07:34:16;;;;;;;3.97;2.72;;;12.60;99.90;;;;;;5035581;28;20371;-74
2023/05/10 07:36:42;;;;;;;4.38;2.80;;;12.70;99.90;;;;;;5019830;28;20408;-76
2023/05/10 07:39:08;;;;;;;4.13;2.65;;;12.80;99.90;;;;;;5018217;28;20049;-75
2023/05/10 07:41:34;;;;;;;3.60;2.60;;;12.70;99.90;;;;;;5032432;28;20033;-76
2023/05/10 07:43:59;;;;;;;4.70;2.95;;;12.80;99.90;;;;;;5034778;28;20168;-74
2023/05/10 07:46:25;;;;;;;3.30;2.47;;;12.90;99.90;;;;;;5017161;28;20081;-76
2023/05/10 07:48:51;;;;;;;4.60;2.95;;;12.80;99.90;;;;;;5034992;28;20044;-75
2023/05/10 07:51:17;;;;;;;5.20;3.53;;;12.90;99.90;;;;;;5020576;28;20045;-75
2023/05/10 07:53:43;;;;;;;5.10;3.67;;;12.90;99.90;;;;;;5037749;28;20132;-74
2023/05/10 07:56:29;;;;;;;6.25;4.20;;;13.00;99.90;;;;;;5035052;28;20046;-74
2023/05/10 07:58:55;;;;;;;;;;;12.90;99.90;;;;;;5034854;28;20044;-74
2023/05/10 08:01:30;;;;;;;7.10;4.35;;;12.90;99.90;;;;;;5009928;28;19967;-74
2023/05/10 08:03:55;;;;;;;6.95;4.95;;;12.90;99.90;;;;;;5034540;28;20839;-77
2023/05/10 08:06:22;;;;;;;7.90;5.15;;;12.90;99.90;;;;;;5033057;28;20056;-75
2023/05/10 08:08:53;;;;;;;7.28;5.20;;;13.00;99.90;;;;;;5036966;28;20051;-75
2023/05/10 08:11:20;;;;;;;8.60;5.15;;;13.00;99.90;;;;;;5031703;28;20051;-78
2023/05/10 08:13:47;;;;;;;9.00;6.28;;;13.00;99.90;;;;;;5039997;28;20044;-76
2023/05/10 08:16:13;;;;;;;10.13;6.13;;;13.10;99.90;;;;;;5038037;28;20091;-74
2023/05/10 08:18:40;;;;;;;8.30;5.80;;;13.10;99.90;;;;;;5035386;28;20409;-76
2023/05/10 08:21:06;;;;;;;8.98;5.70;;;13.10;99.90;;;;;;5038114;28;20061;-77
2023/05/10 08:23:32;;;;;;;10.10;6.60;;;13.10;99.90;;;;;;5037617;28;20053;-76
2023/05/10 08:25:57;;;;;;;9.60;5.80;;;13.20;99.90;;;;;;5040940;28;20055;-74
2023/05/10 08:28:23;;;;;;;9.48;5.97;;;13.30;99.90;;;;;;5024490;28;20068;-77
2023/05/10 08:30:52;;;;;;;9.48;6.68;;;13.30;99.90;;;;;;5039961;28;20078;-77
2023/05/10 08:33:19;;;;;;;9.50;5.55;;;13.30;99.90;;;;;;5039658;28;20068;-74
2023/05/10 08:35:44;;;;;;;7.97;5.78;;;13.40;99.90;;;;;;5032435;28;20056;-74
2023/05/10 08:38:11;;;;;;;7.07;5.00;;;13.40;99.90;;;;;;5034183;28;20061;-74
2023/05/10 08:40:37;;;;;;;7.72;5.13;;;13.50;99.90;;;;;;5037944;28;20491;-74
2023/05/10 08:43:09;;;;;;;7.40;5.10;;;13.50;99.90;;;;;;5037691;28;20049;-76
2023/05/10 08:45:40;;;;;;;8.43;5.50;;;13.50;99.90;;;;;;5036570;28;20045;-74
2023/05/10 08:48:08;;;;;;;8.40;5.30;;;13.40;99.90;;;;;;5038044;28;20186;-77
2023/05/10 08:50:38;;;;;;;7.57;5.38;;;13.40;99.90;;;;;;5034562;28;20041;-75
2023/05/10 08:53:13;;;;;;;7.35;4.90;;;13.50;99.90;;;;;;5036872;28;20049;-75
2023/05/10 08:55:41;;;;;;;9.85;6.60;;;13.50;99.90;;;;;;4999414;28;20812;-74
2023/05/10 08:58:08;;;;;;;9.75;6.97;;;13.50;99.90;;;;;;5037292;28;20083;-75
2023/05/10 09:00:35;;;;;;;9.77;6.60;;;13.50;99.90;;;;;;5037881;28;20041;-75
2023/05/10 09:03:02;;;;;;;9.80;6.90;;;13.50;99.90;;;;;;5037084;28;20037;-76
2023/05/10 09:05:28;;;;;;;7.43;5.70;;;13.60;99.90;;;;;;5035832;28;20454;-75
2023/05/10 09:07:53;;;;;;;8.57;5.63;;;13.60;99.90;;;;;;5037755;28;20128;-75
2023/05/10 09:10:20;;;;;;;9.55;6.03;;;13.60;99.90;;;;;;5019862;28;20076;-75
2023/05/10 09:12:49;;;;;;;9.15;5.95;;;13.50;99.90;;;;;;5039628;28;20045;-76
2023/05/10 09:15:15;;;;;;;9.25;6.25;;;13.60;99.90;;;;;;5039151;28;20308;-75
2023/05/10 09:17:43;;;;;;;8.20;6.68;;;13.50;99.90;;;;;;5019600;28;20041;-76
2023/05/10 09:20:09;;;;;;;8.65;6.63;;;13.50;99.90;;;;;;5039009;28;20055;-74
2023/05/10 09:22:35;;;;;;;9.18;7.00;;;13.40;99.90;;;;;;5056323;28;20057;-74
2023/05/10 09:25:15;;;;;;;9.38;6.93;;;13.40;99.90;;;;;;5040548;28;20045;-74
2023/05/10 09:27:45;;;;;;;11.95;8.57;;;13.40;99.90;;;;;;5020048;28;20048;-74
2023/05/10 09:30:15;;;;;;;12.38;8.90;;;13.40;99.90;;;;;;5034449;28;20063;-75
2023/05/10 09:32:46;;;;;;;13.05;8.73;;;13.40;99.90;;;;;;5021111;28;20034;-75
2023/05/10 09:35:13;;;;;;;10.95;7.90;;;13.40;99.90;;;;;;5035492;28;20053;-74
2023/05/10 09:37:43;;;;;;;13.07;8.75;;;13.40;99.90;;;;;;5034876;28;20116;-76
2023/05/10 09:40:14;;;;;;;11.00;8.10;;;13.50;99.90;;;;;;5037287;28;20068;-74
2023/05/10 09:42:52;;;;;;;11.85;9.00;;;13.50;99.90;;;;;;5021884;28;20060;-74
2023/05/10 09:45:18;;;;;;;11.85;8.68;;;13.60;99.90;;;;;;5039043;28;20047;-76
2023/05/10 09:47:52;;;;;;;12.82;9.25;;;13.60;99.90;;;;;;5032636;28;21510;-77
2023/05/10 09:50:20;;;;;;;12.23;8.82;;;13.70;99.90;;;;;;5018584;28;21398;-75
2023/05/10 09:52:51;;;;;;;12.63;9.40;;;13.80;99.90;;;;;;5015441;28;20045;-75
2023/05/10 09:55:20;;;;;;;12.02;8.40;;;13.90;99.90;;;;;;5034380;28;20041;-74
2023/05/10 09:57:47;;;;;;;9.95;7.65;;;14.00;99.90;;;;;;5023225;28;20053;-76
2023/05/10 10:00:18;;;;;;;8.95;7.53;;;14.00;99.90;;;;;;5004325;28;20041;-74
2023/05/10 10:02:47;;;;;;;9.82;7.50;;;14.00;99.90;;;;;;5029537;28;20045;-76
2023/05/10 10:05:13;;;;;;;8.55;6.90;;;14.00;99.90;;;;;;5039264;28;20060;-74
2023/05/10 10:07:39;;;;;;;8.38;6.85;;;14.10;99.90;;;;;;5040589;28;20635;-76
2023/05/10 10:10:11;;;;;;;8.45;6.03;;;14.20;99.90;;;;;;5033570;28;20053;-75
2023/05/10 10:12:37;;;;;;;7.50;6.28;;;14.30;99.90;;;;;;5029032;28;20299;-76
2023/05/10 10:15:04;;;;;;;8.02;5.85;;;14.30;99.90;;;;;;5022233;28;20049;-75
2023/05/10 10:17:31;;;;;;;11.57;7.18;;;14.40;99.90;;;;;;5037610;28;20449;-75
2023/05/10 10:19:58;;;;;;;8.32;7.00;;;14.30;99.90;;;;;;5033883;28;20099;-75
2023/05/10 10:22:23;;;;;;;7.60;6.50;;;14.40;99.90;;;;;;5034291;28;20395;-75
2023/05/10 10:24:50;;;;;;;8.80;6.75;;;14.30;99.90;;;;;;5032723;28;20063;-77
2023/05/10 10:27:24;;;;;;;6.50;5.88;;;14.30;99.90;;;;;;5033563;28;20045;-75
2023/05/10 10:30:04;;;;;;;7.40;6.05;;;14.40;99.90;;;;;;5032754;28;20049;-75
2023/05/10 10:32:55;;;;;;;8.00;6.57;;;14.40;99.90;;;;;;5037132;28;21725;-75
2023/05/10 10:35:21;;;;;;;8.27;6.30;;;13.80;99.90;;;;;;5034318;28;20098;-76
2023/05/10 10:37:50;;;;;;;6.95;6.07;;;14.50;99.90;;;;;;5022339;28;20052;-76
2023/05/10 10:40:30;;;;;;;6.95;5.35;;;14.60;99.90;;;;;;5038896;28;20491;-77
2023/05/10 10:42:57;;;;;;;7.25;5.50;;;14.60;99.90;;;;;;5031727;28;20126;-75
2023/05/10 10:45:24;;;;;;;8.70;6.03;;;14.40;99.90;;;;;;5031447;28;20040;-74
2023/05/10 10:48:22;;;;;;;7.38;6.50;;;14.30;99.90;;;;;;5035843;28;20048;-74
2023/05/10 10:50:55;;;;;;;11.00;7.40;;;14.20;99.90;;;;;;5035079;28;20051;-74
2023/05/10 10:53:28;;;;;;;8.05;6.97;;;14.20;99.90;;;;;;5054937;28;20043;-74
2023/05/10 10:56:09;;;;;;;9.70;7.97;;;14.30;99.90;;;;;;5035445;28;20053;-74
2023/05/10 10:58:37;;;;;;;10.23;8.43;;;14.40;99.90;;;;;;5034241;28;20036;-74
2023/05/10 11:01:14;;;;;;;11.50;8.43;;;14.50;99.90;;;;;;5035159;28;20508;-75
2023/05/10 11:03:41;;;;;;;11.32;9.02;;;14.40;99.90;;;;;;5036771;28;20377;-74
2023/05/10 11:06:08;;;;;;;11.65;9.10;;;14.50;99.90;;;;;;5020606;28;20075;-74
2023/05/10 11:08:42;;;;;;;13.32;9.10;;;14.50;99.90;;;;;;5034862;28;20428;-75
2023/05/10 11:11:08;;;;;;;12.65;9.77;;;14.40;99.90;;;;;;5034891;28;20763;-76
2023/05/10 11:13:48;;;;;;;13.30;9.70;;;14.30;99.90;;;;;;5020716;28;20045;-78
2023/05/10 11:16:17;;;;;;;13.88;10.38;;;14.30;99.90;;;;;;5031266;28;20052;-75
2023/05/10 11:19:11;;;;;;;14.48;10.45;;;14.40;99.90;;;;;;5035116;28;20411;-74
2023/05/10 11:21:48;;;;;;;16.10;11.73;;;14.40;99.90;;;;;;5015864;28;20484;-75
2023/05/10 11:24:17;;;;;;;16.00;10.75;;;14.50;99.90;;;;;;5025586;28;20049;-74
2023/05/10 11:26:43;;;;;;;17.83;12.65;;;14.50;99.90;;;;;;5035025;28;20057;-74
2023/05/10 11:29:08;;;;;;;17.17;12.45;;;14.20;99.90;;;;;;5039199;28;20581;-77
2023/05/10 11:31:34;;;;;;;15.93;11.52;;;14.70;99.90;;;;;;5037427;28;20087;-77
2023/05/10 11:34:01;;;;;;;17.30;11.95;;;14.70;99.90;;;;;;5037653;28;20047;-76
2023/05/10 11:36:35;;;;;;;17.83;11.93;;;14.70;99.90;;;;;;5003358;28;20492;-78
2023/05/10 11:39:02;;;;;;;19.70;12.98;;;14.80;99.90;;;;;;5022521;28;20045;-75
2023/05/10 11:41:29;;;;;;;15.98;11.77;;;14.90;99.90;;;;;;5033706;28;20520;-76
2023/05/10 11:43:56;;;;;;;16.17;11.65;;;15.00;99.90;;;;;;5037712;28;20123;-75
2023/05/10 11:46:24;;;;;;;16.25;11.77;;;15.10;99.90;;;;;;5039693;28;20053;-76
2023/05/10 11:48:52;;;;;;;15.75;11.93;;;15.10;99.90;;;;;;5014557;28;20057;-76
2023/05/10 11:51:22;;;;;;;15.20;11.32;;;15.10;99.90;;;;;;5037883;28;20053;-75
2023/05/10 11:53:51;;;;;;;14.82;10.85;;;15.20;99.90;;;;;;5032713;28;20049;-75
2023/05/10 11:56:16;;;;;;;12.65;10.15;;;15.30;99.90;;;;;;5032646;28;20745;-76
2023/05/10 11:58:42;;;;;;;12.88;10.15;;;15.50;99.90;;;;;;5033519;28;20758;-76
2023/05/10 12:01:10;;;;;;;15.20;11.20;;;15.60;99.90;;;;;;5013262;28;21036;-76
2023/05/10 12:03:36;;;;;;;12.68;10.60;;;15.90;99.90;;;;;;5026013;28;20627;-76
2023/05/10 12:06:02;;;;;;;12.05;8.65;;;16.40;99.90;;;;;;5036265;28;20044;-77
2023/05/10 12:08:29;;;;;;;10.90;9.45;;;16.70;99.90;;;;;;5035484;28;20163;-76
2023/05/10 12:11:10;;;;;;;9.60;7.97;;;17.30;99.90;;;;;;5024721;28;20048;-76
2023/05/10 12:13:40;;;;;;;11.77;8.75;;;17.80;99.90;;;;;;5038386;28;20095;-78
2023/05/10 12:16:20;;;;;;;12.45;9.25;;;18.20;99.90;;;;;;5024943;28;20049;-78
2023/05/10 12:18:52;;;;;;;10.75;8.77;;;18.60;99.90;;;;;;5041325;28;20052;-77
2023/05/10 12:21:20;;;;;;;11.02;8.57;;;19.00;99.90;;;;;;5027361;28;20049;-76
2023/05/10 12:23:48;;;;;;;11.38;8.45;;;19.00;99.90;;;;;;5038206;28;20055;-76
2023/05/10 12:26:14;;;;;;;10.85;8.18;;;19.20;99.90;;;;;;5035650;28;20514;-77
2023/05/10 12:28:40;;;;;;;8.68;6.65;;;19.20;99.90;;;;;;5013545;28;20049;-75
2023/05/10 12:31:07;;;;;;;8.45;6.65;;;19.10;99.90;;;;;;5019499;28;20550;-78
2023/05/10 12:33:43;;;;;;;8.07;6.68;;;18.80;99.90;;;;;;5037684;28;20071;-76
2023/05/10 12:36:13;;;;;;;7.43;6.05;;;18.50;99.90;;;;;;4991524;28;20045;-77
2023/05/10 12:38:47;;;;;;;7.95;6.25;;;18.20;99.90;;;;;;5038506;28;20053;-76
2023/05/10 12:41:16;;;;;;;7.15;6.18;;;17.60;99.90;;;;;;5036920;28;20383;-75
2023/05/10 12:43:42;;;;;;;9.77;7.30;;;17.20;99.90;;;;;;5042284;28;20065;-76
2023/05/10 12:46:16;;;;;;;7.65;6.53;;;16.90;99.90;;;;;;5034506;28;20053;-76
2023/05/10 12:48:43;;;;;;;7.20;6.32;;;17.00;99.90;;;;;;5038051;28;20373;-76
2023/05/10 12:51:11;;;;;;;6.43;5.82;;;16.80;99.90;;;;;;5034739;28;20045;-76